Flight Track Log - Related Links

Times and Time Zones

All times are in EDT time to prevent confusion due to time zone crossing. See the EGF3681 flight status page for this flight to view local times or setup timezone preferences in your user account.

Time Position Orientation Groundspeed Altitude Reporting Facility
EDT Latitude Longitude Course Direction KTS MPH feet Rate Location/Type
Sun 11:46:03 PM 41.9400 -87.8158 90° East 257 296 3,900  Level Chicago Center
Sun 11:47:00 PM 41.9667 -87.5348 90° East  Level FlightAware Approximate
Sun 11:47:04 PM 41.9453 -87.7186 86° East 263 303 5,800  Level Chicago Center
Sun 11:48:00 PM 41.9548 -87.4141 98° East  Level FlightAware Approximate
Sun 11:48:04 PM 41.9494 -87.5911 87° East 281 323 8,600  Level Chicago Center
Sun 11:49:00 PM 41.9448 -87.2932 95° East  Level FlightAware Approximate
Sun 11:49:05 PM 41.9469 -87.4797 92° East 294 338 11,000  Level Chicago Center
Sun 11:50:00 PM 41.9359 -87.1694 95° East  Level FlightAware Approximate
Sun 11:50:05 PM 41.9472 -87.3642 90° East 307 353 12,700  Level Chicago Center
Sun 11:51:00 PM 41.9333 -87.0451 90° East  Level FlightAware Approximate
Sun 11:51:06 PM 41.9481 -87.2392 89° East 327 376 13,800  Level Chicago Center
Sun 11:52:06 PM 41.9467 -87.1042 91° East 352 405 15,000 1,190 Climbing Chicago Center
Sun 11:53:07 PM 41.9472 -86.9644 90° East 368 423 16,200 1,140 Climbing Chicago Center
Sun 11:54:07 PM 41.9500 -86.8217 88° East 381 438 17,300 942 Climbing Chicago Center
Sun 11:55:08 PM 41.9492 -86.6747 90° East 388 447 18,100 793 Climbing Chicago Center
Sun 11:56:08 PM 41.9069 -86.5431 113° Southeast 413 475 18,900 950 Climbing Chicago Center
Sun 11:57:08 PM 41.8222 -86.4439 139° Southeast 407 468 20,000 1,091 Climbing Chicago Center
Sun 11:58:09 PM 41.7356 -86.3408 138° Southeast 417 480 21,100 1,041 Climbing Chicago Center
Sun 11:59:09 PM 41.6489 -86.2372 138° Southeast 420 483 22,100 992 Climbing Chicago Center
Mon 12:00:10 AM 41.5614 -86.1306 138° Southeast 425 489 23,100 1,041 Climbing Chicago Center
Mon 12:01:10 AM 41.4739 -86.0253 138° Southeast 426 490 24,200 942 Climbing Chicago Center
Mon 12:02:11 AM 41.3847 -85.9208 139° Southeast 429 494 25,000 397 Climbing Chicago Center
Mon 12:03:11 AM 41.2922 -85.8125 139° Southeast 441 507 25,000  Level Chicago Center
Mon 12:04:12 AM 41.1967 -85.7003 139° Southeast 456 525 25,000  Level Chicago Center
Mon 12:05:12 AM 41.0983 -85.5867 139° Southeast 467 537 25,000  Level Chicago Center
Mon 12:06:13 AM 41.0003 -85.4719 139° Southeast 473 544 25,000 -1,240 Level Chicago Center
Mon 12:07:13 AM 40.8853 -85.3372 138° Southeast 468 539 22,500 -2,777 Descending Chicago Center
Mon 12:08:14 AM 40.7953 -85.2281 137° Southeast 452 520 19,400 -2,678 Descending Chicago Center
Mon 12:09:14 AM 40.7092 -85.1256 138° Southeast 431 496 17,100 -2,200 Descending Chicago Center
Mon 12:10:14 AM 40.6217 -85.0317 141° Southeast 408 470 15,000 -1,613 Descending Chicago Center
Mon 12:11:13 AM 40.5550 -84.9558 139° Southeast 400 460 13,900 -1,210 Descending Indianapolis Center
Mon 12:12:13 AM 40.4656 -84.8544 139° Southeast 386 444 12,600 -1,100 Descending Indianapolis Center
Mon 12:13:13 AM 40.3867 -84.7644 139° Southeast 377 434 11,700 -843 Descending Indianapolis Center
Mon 12:14:14 AM 40.3272 -84.6739 131° Southeast 325 374 10,900 -1,140 Descending Indianapolis Center
Mon 12:15:14 AM 40.2744 -84.5908 130° Southeast 300 345 9,400 -1,200 Descending Indianapolis Center
Mon 12:16:14 AM 40.2211 -84.5094 131° Southeast 294 338 8,500 -950 Descending Indianapolis Center
Mon 12:17:14 AM 40.1717 -84.4278 128° Southeast 288 331 7,500 -1,050 Descending Indianapolis Center
Mon 12:18:14 AM 40.1197 -84.3508 131° Southeast 282 325 6,400 -1,050 Descending Indianapolis Center
Mon 12:19:14 AM 40.0692 -84.2744 131° Southeast 280 322 5,400 -1,237 Descending Indianapolis Center
Mon 12:20:25 AM 40.0086 -84.1878 132° Southeast 254 292 3,700 -1,339 Descending Indianapolis Center
Mon 12:21:15 AM 39.9700 -84.1486 142° Southeast 245 282 2,700 -1,091 Descending Indianapolis Center
Mon 12:22:15 AM 39.9311 -84.1758 208° Southwest 186 214 1,700 -650 Descending Indianapolis Center
Mon 12:23:15 AM 39.9108 -84.2122 234° Southwest 172 198 1,400 -300 Descending Indianapolis Center

Login

Don't have an account? Register now (free) for customized features, flight alerts, and more!